sensor_id;sensor_type;location;lat;lon;timestamp;pressure;altitude;pressure_sealevel;temperature;humidity
20909;BME280;10614;53.198;6.570;2023-06-14T00:00:39;101773.47;;;20.52;41.11
20909;BME280;10614;53.198;6.570;2023-06-14T00:02:42;101778.03;;;20.50;41.12
20909;BME280;10614;53.198;6.570;2023-06-14T00:04:44;101780.28;;;20.43;41.34
20909;BME280;10614;53.198;6.570;2023-06-14T00:06:51;101770.84;;;20.38;41.51
20909;BME280;10614;53.198;6.570;2023-06-14T00:08:53;101777.47;;;20.32;41.22
20909;BME280;10614;53.198;6.570;2023-06-14T00:10:55;101776.03;;;20.27;41.42
20909;BME280;10614;53.198;6.570;2023-06-14T00:12:56;101771.09;;;20.20;41.83
20909;BME280;10614;53.198;6.570;2023-06-14T00:15:00;101769.78;;;20.13;41.25
20909;BME280;10614;53.198;6.570;2023-06-14T00:17:02;101774.28;;;20.13;42.30
20909;BME280;10614;53.198;6.570;2023-06-14T00:19:04;101754.56;;;20.01;42.55
20909;BME280;10614;53.198;6.570;2023-06-14T00:21:06;101775.44;;;20.09;42.43
20909;BME280;10614;53.198;6.570;2023-06-14T00:23:09;101764.50;;;19.99;42.93
20909;BME280;10614;53.198;6.570;2023-06-14T00:25:11;101784.25;;;19.96;42.81
20909;BME280;10614;53.198;6.570;2023-06-14T00:27:13;101784.66;;;19.90;43.00
20909;BME280;10614;53.198;6.570;2023-06-14T00:29:15;101778.75;;;19.85;43.71
20909;BME280;10614;53.198;6.570;2023-06-14T00:31:16;101786.31;;;19.78;44.25
20909;BME280;10614;53.198;6.570;2023-06-14T00:33:18;101783.66;;;19.78;44.10
20909;BME280;10614;53.198;6.570;2023-06-14T00:35:21;101786.41;;;19.77;44.26
20909;BME280;10614;53.198;6.570;2023-06-14T00:37:24;101785.44;;;19.78;44.29
20909;BME280;10614;53.198;6.570;2023-06-14T00:39:27;101792.88;;;19.73;44.25
20909;BME280;10614;53.198;6.570;2023-06-14T00:41:29;101786.28;;;19.64;44.80
20909;BME280;10614;53.198;6.570;2023-06-14T00:43:31;101789.22;;;19.59;44.38
20909;BME280;10614;53.198;6.570;2023-06-14T00:45:32;101782.28;;;19.57;45.50
20909;BME280;10614;53.198;6.570;2023-06-14T00:47:37;101785.91;;;19.56;45.57
20909;BME280;10614;53.198;6.570;2023-06-14T00:49:40;101789.94;;;19.49;45.56
20909;BME280;10614;53.198;6.570;2023-06-14T00:51:42;101790.88;;;19.48;46.09
20909;BME280;10614;53.198;6.570;2023-06-14T00:53:44;101782.13;;;19.46;46.95
20909;BME280;10614;53.198;6.570;2023-06-14T00:55:49;101783.13;;;19.43;46.67
20909;BME280;10614;53.198;6.570;2023-06-14T00:57:51;101786.09;;;19.38;46.72
20909;BME280;10614;53.198;6.570;2023-06-14T00:59:53;101783.06;;;19.30;46.67
20909;BME280;10614;53.198;6.570;2023-06-14T01:01:56;101782.56;;;19.24;47.25
20909;BME280;10614;53.198;6.570;2023-06-14T01:03:57;101782.78;;;19.21;47.61
20909;BME280;10614;53.198;6.570;2023-06-14T01:06:05;101783.97;;;19.15;47.80
20909;BME280;10614;53.198;6.570;2023-06-14T01:08:19;101784.25;;;19.10;48.40
20909;BME280;10614;53.198;6.570;2023-06-14T01:10:39;101780.94;;;19.07;48.07
20909;BME280;10614;53.198;6.570;2023-06-14T01:12:52;101777.59;;;19.03;48.72
20909;BME280;10614;53.198;6.570;2023-06-14T01:14:59;101775.19;;;18.98;48.80
20909;BME280;10614;53.198;6.570;2023-06-14T01:17:02;101775.59;;;18.92;48.63
20909;BME280;10614;53.198;6.570;2023-06-14T01:19:05;101782.13;;;18.87;48.90
20909;BME280;10614;53.198;6.570;2023-06-14T01:21:20;101782.25;;;18.85;49.04
20909;BME280;10614;53.198;6.570;2023-06-14T01:23:23;101772.69;;;18.81;49.42
20909;BME280;10614;53.198;6.570;2023-06-14T01:25:26;101785.06;;;18.82;50.14
20909;BME280;10614;53.198;6.570;2023-06-14T01:27:29;101782.69;;;18.77;50.51
20909;BME280;10614;53.198;6.570;2023-06-14T01:29:33;101781.03;;;18.75;50.28
20909;BME280;10614;53.198;6.570;2023-06-14T01:31:37;101774.25;;;18.69;50.16
20909;BME280;10614;53.198;6.570;2023-06-14T01:33:41;101780.72;;;18.65;50.44
20909;BME280;10614;53.198;6.570;2023-06-14T01:35:45;101784.34;;;18.64;50.12
20909;BME280;10614;53.198;6.570;2023-06-14T01:37:48;101786.31;;;18.61;51.09
20909;BME280;10614;53.198;6.570;2023-06-14T01:39:55;101775.91;;;18.56;51.27
20909;BME280;10614;53.198;6.570;2023-06-14T01:41:58;101789.44;;;18.53;50.78
20909;BME280;10614;53.198;6.570;2023-06-14T01:44:02;101788.84;;;18.48;51.57
20909;BME280;10614;53.198;6.570;2023-06-14T01:46:05;101783.22;;;18.38;52.08
20909;BME280;10614;53.198;6.570;2023-06-14T01:48:08;101780.19;;;18.28;51.86
20909;BME280;10614;53.198;6.570;2023-06-14T01:50:10;101783.56;;;18.16;53.02
20909;BME280;10614;53.198;6.570;2023-06-14T01:52:12;101782.63;;;18.17;52.53
20909;BME280;10614;53.198;6.570;2023-06-14T01:54:13;101785.38;;;18.16;53.15
20909;BME280;10614;53.198;6.570;2023-06-14T01:56:17;101782.91;;;18.12;52.97
20909;BME280;10614;53.198;6.570;2023-06-14T01:58:18;101790.88;;;18.12;53.50
20909;BME280;10614;53.198;6.570;2023-06-14T02:00:20;101796.38;;;18.09;53.89
20909;BME280;10614;53.198;6.570;2023-06-14T02:02:22;101789.59;;;18.04;53.94
20909;BME280;10614;53.198;6.570;2023-06-14T02:04:24;101789.66;;;18.02;54.36
20909;BME280;10614;53.198;6.570;2023-06-14T02:06:26;101788.91;;;18.00;55.16
20909;BME280;10614;53.198;6.570;2023-06-14T02:08:28;101790.88;;;17.97;55.02
20909;BME280;10614;53.198;6.570;2023-06-14T02:10:30;101792.00;;;17.92;55.62
20909;BME280;10614;53.198;6.570;2023-06-14T02:12:33;101798.34;;;17.90;54.62
20909;BME280;10614;53.198;6.570;2023-06-14T02:14:35;101775.91;;;17.78;55.90
20909;BME280;10614;53.198;6.570;2023-06-14T02:16:37;101790.53;;;17.87;55.54
20909;BME280;10614;53.198;6.570;2023-06-14T02:18:39;101792.44;;;17.85;55.60
20909;BME280;10614;53.198;6.570;2023-06-14T02:20:40;101770.91;;;17.72;56.51
20909;BME280;10614;53.198;6.570;2023-06-14T02:22:42;101782.44;;;17.72;56.02
20909;BME280;10614;53.198;6.570;2023-06-14T02:24:44;101787.84;;;17.71;56.54
20909;BME280;10614;53.198;6.570;2023-06-14T02:26:47;101793.09;;;17.72;57.19
20909;BME280;10614;53.198;6.570;2023-06-14T02:28:50;101784.72;;;17.63;57.88
20909;BME280;10614;53.198;6.570;2023-06-14T02:30:52;101790.75;;;17.66;58.32
20909;BME280;10614;53.198;6.570;2023-06-14T02:32:54;101789.78;;;17.67;58.39
20909;BME280;10614;53.198;6.570;2023-06-14T02:34:57;101785.75;;;17.60;58.69
20909;BME280;10614;53.198;6.570;2023-06-14T02:36:58;101771.28;;;17.48;57.97
20909;BME280;10614;53.198;6.570;2023-06-14T02:39:00;101786.00;;;17.56;59.12
20909;BME280;10614;53.198;6.570;2023-06-14T02:41:03;101789.53;;;17.56;58.23
20909;BME280;10614;53.198;6.570;2023-06-14T02:43:04;101782.66;;;17.52;59.22
20909;BME280;10614;53.198;6.570;2023-06-14T02:45:08;101779.22;;;17.50;59.04
20909;BME280;10614;53.198;6.570;2023-06-14T02:47:10;101793.47;;;17.49;59.44
20909;BME280;10614;53.198;6.570;2023-06-14T02:49:12;101790.19;;;17.44;59.45
20909;BME280;10614;53.198;6.570;2023-06-14T02:51:14;101785.22;;;17.38;60.90
20909;BME280;10614;53.198;6.570;2023-06-14T02:53:16;101791.31;;;17.40;60.75
20909;BME280;10614;53.198;6.570;2023-06-14T02:55:17;101799.44;;;17.37;60.27
20909;BME280;10614;53.198;6.570;2023-06-14T02:57:19;101799.00;;;17.28;60.29
20909;BME280;10614;53.198;6.570;2023-06-14T02:59:21;101798.22;;;17.26;61.71
20909;BME280;10614;53.198;6.570;2023-06-14T03:01:27;101806.28;;;17.25;61.74
20909;BME280;10614;53.198;6.570;2023-06-14T03:03:34;101796.28;;;17.13;61.94
20909;BME280;10614;53.198;6.570;2023-06-14T03:05:36;101797.22;;;17.12;61.84
20909;BME280;10614;53.198;6.570;2023-06-14T03:07:41;101804.72;;;17.21;62.72
20909;BME280;10614;53.198;6.570;2023-06-14T03:09:45;101803.00;;;17.20;61.05
20909;BME280;10614;53.198;6.570;2023-06-14T03:11:49;101808.31;;;17.20;62.26
20909;BME280;10614;53.198;6.570;2023-06-14T03:13:51;101806.69;;;17.17;61.43
20909;BME280;10614;53.198;6.570;2023-06-14T03:15:53;101802.78;;;17.07;62.19
20909;BME280;10614;53.198;6.570;2023-06-14T03:17:58;101817.63;;;17.11;61.99
20909;BME280;10614;53.198;6.570;2023-06-14T03:20:00;101807.94;;;17.10;62.24
20909;BME280;10614;53.198;6.570;2023-06-14T03:22:04;101821.31;;;17.08;62.02
20909;BME280;10614;53.198;6.570;2023-06-14T03:24:07;101816.09;;;17.07;62.55
20909;BME280;10614;53.198;6.570;2023-06-14T03:26:09;101817.72;;;17.09;62.52
20909;BME280;10614;53.198;6.570;2023-06-14T03:28:13;101822.34;;;17.06;62.64
20909;BME280;10614;53.198;6.570;2023-06-14T03:30:15;101823.28;;;17.05;63.24
20909;BME280;10614;53.198;6.570;2023-06-14T03:32:16;101825.09;;;17.04;63.64
20909;BME280;10614;53.198;6.570;2023-06-14T03:34:20;101825.94;;;17.05;62.95
20909;BME280;10614;53.198;6.570;2023-06-14T03:36:21;101828.59;;;17.05;63.40
20909;BME280;10614;53.198;6.570;2023-06-14T03:38:23;101827.75;;;17.04;64.53
20909;BME280;10614;53.198;6.570;2023-06-14T03:40:25;101829.63;;;17.02;63.34
20909;BME280;10614;53.198;6.570;2023-06-14T03:42:27;101830.47;;;17.03;63.68
20909;BME280;10614;53.198;6.570;2023-06-14T03:44:29;101834.22;;;16.99;64.01
20909;BME280;10614;53.198;6.570;2023-06-14T03:46:31;101832.75;;;16.93;64.48
20909;BME280;10614;53.198;6.570;2023-06-14T03:48:33;101825.63;;;16.94;64.61
20909;BME280;10614;53.198;6.570;2023-06-14T03:50:36;101830.00;;;16.95;64.64
20909;BME280;10614;53.198;6.570;2023-06-14T03:52:39;101837.97;;;16.95;65.30
20909;BME280;10614;53.198;6.570;2023-06-14T03:54:43;101834.63;;;16.91;64.61
20909;BME280;10614;53.198;6.570;2023-06-14T03:56:44;101836.44;;;16.91;65.68
20909;BME280;10614;53.198;6.570;2023-06-14T03:58:47;101832.19;;;16.86;65.80
20909;BME280;10614;53.198;6.570;2023-06-14T04:00:48;101832.38;;;16.83;65.44
20909;BME280;10614;53.198;6.570;2023-06-14T04:02:50;101848.84;;;16.90;65.81
20909;BME280;10614;53.198;6.570;2023-06-14T04:04:52;101843.63;;;16.88;66.48
20909;BME280;10614;53.198;6.570;2023-06-14T04:06:56;101843.63;;;16.88;65.44
20909;BME280;10614;53.198;6.570;2023-06-14T04:08:59;101852.28;;;16.92;66.44
20909;BME280;10614;53.198;6.570;2023-06-14T04:11:04;101842.84;;;16.86;66.04
20909;BME280;10614;53.198;6.570;2023-06-14T04:13:06;101838.16;;;16.92;66.08
20909;BME280;10614;53.198;6.570;2023-06-14T04:15:09;101853.00;;;16.96;66.98
20909;BME280;10614;53.198;6.570;2023-06-14T04:17:11;101861.69;;;16.99;67.23
20909;BME280;10614;53.198;6.570;2023-06-14T04:19:13;101842.59;;;16.91;66.60
20909;BME280;10614;53.198;6.570;2023-06-14T04:21:15;101858.88;;;17.02;67.37
20909;BME280;10614;53.198;6.570;2023-06-14T04:23:18;101865.13;;;17.01;66.96
20909;BME280;10614;53.198;6.570;2023-06-14T04:25:20;101846.28;;;16.88;67.39
20909;BME280;10614;53.198;6.570;2023-06-14T04:27:23;101870.44;;;17.01;67.91
20909;BME280;10614;53.198;6.570;2023-06-14T04:29:25;101867.72;;;17.03;67.39
20909;BME280;10614;53.198;6.570;2023-06-14T04:31:28;101869.81;;;16.96;67.69
20909;BME280;10614;53.198;6.570;2023-06-14T04:33:29;101867.41;;;16.92;68.17
20909;BME280;10614;53.198;6.570;2023-06-14T04:35:32;101871.00;;;16.91;67.40
20909;BME280;10614;53.198;6.570;2023-06-14T04:37:36;101875.22;;;16.95;67.34
20909;BME280;10614;53.198;6.570;2023-06-14T04:39:41;101871.69;;;16.94;68.07
20909;BME280;10614;53.198;6.570;2023-06-14T04:41:43;101869.28;;;16.90;68.34
20909;BME280;10614;53.198;6.570;2023-06-14T04:43:45;101882.34;;;16.94;68.89
20909;BME280;10614;53.198;6.570;2023-06-14T04:45:49;101877.25;;;16.90;68.78
20909;BME280;10614;53.198;6.570;2023-06-14T04:47:52;101880.84;;;16.88;68.87
20909;BME280;10614;53.198;6.570;2023-06-14T04:49:57;101883.66;;;16.85;69.00
20909;BME280;10614;53.198;6.570;2023-06-14T04:52:00;101899.25;;;16.93;68.92
20909;BME280;10614;53.198;6.570;2023-06-14T04:54:03;101896.41;;;16.96;68.63
20909;BME280;10614;53.198;6.570;2023-06-14T04:56:06;101893.59;;;16.99;68.69
20909;BME280;10614;53.198;6.570;2023-06-14T04:58:08;101895.41;;;16.99;68.54
20909;BME280;10614;53.198;6.570;2023-06-14T05:00:13;101900.72;;;16.99;69.74
20909;BME280;10614;53.198;6.570;2023-06-14T05:02:15;101883.53;;;16.88;68.83
20909;BME280;10614;53.198;6.570;2023-06-14T05:04:17;101900.78;;;16.97;68.59
20909;BME280;10614;53.198;6.570;2023-06-14T05:06:19;101908.63;;;17.00;69.60
20909;BME280;10614;53.198;6.570;2023-06-14T05:08:22;101906.03;;;16.99;69.13
20909;BME280;10614;53.198;6.570;2023-06-14T05:10:25;101911.19;;;17.02;69.10
20909;BME280;10614;53.198;6.570;2023-06-14T05:12:28;101910.28;;;17.03;69.33
20909;BME280;10614;53.198;6.570;2023-06-14T05:14:30;101907.63;;;17.03;69.24
20909;BME280;10614;53.198;6.570;2023-06-14T05:16:31;101905.19;;;16.98;68.93
20909;BME280;10614;53.198;6.570;2023-06-14T05:18:33;101902.47;;;17.00;69.62
20909;BME280;10614;53.198;6.570;2023-06-14T05:20:35;101910.22;;;17.04;69.17
20909;BME280;10614;53.198;6.570;2023-06-14T05:22:38;101910.91;;;17.08;70.08
20909;BME280;10614;53.198;6.570;2023-06-14T05:24:40;101914.28;;;17.12;69.98
20909;BME280;10614;53.198;6.570;2023-06-14T05:26:42;101914.91;;;17.17;69.26
20909;BME280;10614;53.198;6.570;2023-06-14T05:28:45;101921.72;;;17.22;69.07
20909;BME280;10614;53.198;6.570;2023-06-14T05:30:47;101915.84;;;17.33;69.87
20909;BME280;10614;53.198;6.570;2023-06-14T05:32:49;101911.22;;;17.37;68.83
20909;BME280;10614;53.198;6.570;2023-06-14T05:34:50;101908.41;;;17.40;69.12
20909;BME280;10614;53.198;6.570;2023-06-14T05:36:52;101902.13;;;17.41;69.42
20909;BME280;10614;53.198;6.570;2023-06-14T05:38:55;101919.69;;;17.45;69.64
20909;BME280;10614;53.198;6.570;2023-06-14T05:40:59;101913.63;;;17.41;68.68
20909;BME280;10614;53.198;6.570;2023-06-14T05:43:01;101919.06;;;17.40;69.35
20909;BME280;10614;53.198;6.570;2023-06-14T05:45:05;101925.00;;;17.45;68.49
20909;BME280;10614;53.198;6.570;2023-06-14T05:47:08;101919.75;;;17.43;68.09
20909;BME280;10614;53.198;6.570;2023-06-14T05:49:10;101927.50;;;17.48;68.96
20909;BME280;10614;53.198;6.570;2023-06-14T05:51:12;101925.00;;;17.45;68.64
20909;BME280;10614;53.198;6.570;2023-06-14T05:53:14;101908.47;;;17.38;68.39
20909;BME280;10614;53.198;6.570;2023-06-14T05:55:16;101911.16;;;17.38;68.34
20909;BME280;10614;53.198;6.570;2023-06-14T05:57:18;101921.31;;;17.47;68.01
20909;BME280;10614;53.198;6.570;2023-06-14T05:59:20;101920.38;;;17.48;68.46
20909;BME280;10614;53.198;6.570;2023-06-14T06:01:23;101927.09;;;17.56;68.12
20909;BME280;10614;53.198;6.570;2023-06-14T06:03:25;101933.97;;;17.60;67.48
20909;BME280;10614;53.198;6.570;2023-06-14T06:05:29;101924.72;;;17.67;67.22
20909;BME280;10614;53.198;6.570;2023-06-14T06:07:31;101935.13;;;17.71;67.83
20909;BME280;10614;53.198;6.570;2023-06-14T06:09:33;101925.44;;;17.70;67.91
20909;BME280;10614;53.198;6.570;2023-06-14T06:11:35;101938.13;;;17.83;67.46
20909;BME280;10614;53.198;6.570;2023-06-14T06:13:38;101931.59;;;17.88;67.14
20909;BME280;10614;53.198;6.570;2023-06-14T06:15:41;101928.81;;;17.91;67.38
20909;BME280;10614;53.198;6.570;2023-06-14T06:17:46;101927.59;;;17.97;67.97
20909;BME280;10614;53.198;6.570;2023-06-14T06:19:50;101932.50;;;18.05;67.09
20909;BME280;10614;53.198;6.570;2023-06-14T06:21:52;101907.50;;;17.91;67.37
20909;BME280;10614;53.198;6.570;2023-06-14T06:23:53;101939.94;;;18.16;66.55
20909;BME280;10614;53.198;6.570;2023-06-14T06:25:56;101881.09;;;17.87;66.27
20909;BME280;10614;53.198;6.570;2023-06-14T06:27:58;101924.13;;;18.12;66.31
20909;BME280;10614;53.198;6.570;2023-06-14T06:30:01;101925.91;;;18.12;66.15
20909;BME280;10614;53.198;6.570;2023-06-14T06:32:05;101943.72;;;18.27;66.11
20909;BME280;10614;53.198;6.570;2023-06-14T06:34:08;101944.44;;;18.31;65.69
20909;BME280;10614;53.198;6.570;2023-06-14T06:36:10;101932.88;;;18.30;65.43
20909;BME280;10614;53.198;6.570;2023-06-14T06:38:12;101931.19;;;18.29;65.53
20909;BME280;10614;53.198;6.570;2023-06-14T06:40:14;101922.34;;;18.29;65.50
20909;BME280;10614;53.198;6.570;2023-06-14T06:42:16;101923.09;;;18.31;65.17
20909;BME280;10614;53.198;6.570;2023-06-14T06:44:18;101915.38;;;18.26;64.47
20909;BME280;10614;53.198;6.570;2023-06-14T06:46:20;101940.47;;;18.38;65.31
20909;BME280;10614;53.198;6.570;2023-06-14T06:48:24;101968.34;;;18.64;64.60
20909;BME280;10614;53.198;6.570;2023-06-14T06:50:28;101973.31;;;18.70;65.05
20909;BME280;10614;53.198;6.570;2023-06-14T06:52:31;101967.84;;;18.73;64.67
20909;BME280;10614;53.198;6.570;2023-06-14T06:54:33;101967.59;;;18.78;64.71
20909;BME280;10614;53.198;6.570;2023-06-14T06:56:36;101972.50;;;18.86;63.33
20909;BME280;10614;53.198;6.570;2023-06-14T06:58:39;101978.50;;;18.89;62.94
20909;BME280;10614;53.198;6.570;2023-06-14T07:00:41;101951.59;;;18.78;63.13
20909;BME280;10614;53.198;6.570;2023-06-14T07:02:43;101964.22;;;18.90;62.10
20909;BME280;10614;53.198;6.570;2023-06-14T07:04:48;101960.88;;;18.87;61.83
20909;BME280;10614;53.198;6.570;2023-06-14T07:06:52;101976.09;;;19.01;61.14
20909;BME280;10614;53.198;6.570;2023-06-14T07:08:54;101973.06;;;19.07;60.57
20909;BME280;10614;53.198;6.570;2023-06-14T07:11:04;101960.00;;;19.02;60.89
20909;BME280;10614;53.198;6.570;2023-06-14T07:13:08;101968.84;;;19.18;60.58
20909;BME280;10614;53.198;6.570;2023-06-14T07:15:20;101977.16;;;19.28;60.76
20909;BME280;10614;53.198;6.570;2023-06-14T07:17:23;101974.22;;;19.33;60.16
20909;BME280;10614;53.198;6.570;2023-06-14T07:19:27;101981.75;;;19.40;60.16
20909;BME280;10614;53.198;6.570;2023-06-14T07:21:46;101929.06;;;19.14;59.77
20909;BME280;10614;53.198;6.570;2023-06-14T07:23:51;101935.56;;;19.24;58.88
20909;BME280;10614;53.198;6.570;2023-06-14T07:25:56;101984.66;;;19.52;58.26
20909;BME280;10614;53.198;6.570;2023-06-14T07:28:11;101962.50;;;19.35;58.09
20909;BME280;10614;53.198;6.570;2023-06-14T07:30:16;101933.88;;;19.23;57.80
20909;BME280;10614;53.198;6.570;2023-06-14T07:32:20;101961.94;;;19.45;57.41
20909;BME280;10614;53.198;6.570;2023-06-14T07:34:23;101965.13;;;19.51;57.22
20909;BME280;10614;53.198;6.570;2023-06-14T07:36:29;101970.09;;;19.57;56.97
20909;BME280;10614;53.198;6.570;2023-06-14T07:38:32;101993.66;;;19.81;56.92
20909;BME280;10614;53.198;6.570;2023-06-14T07:40:35;101996.03;;;19.86;56.65
20909;BME280;10614;53.198;6.570;2023-06-14T07:42:37;101950.34;;;19.60;56.18
20909;BME280;10614;53.198;6.570;2023-06-14T07:44:40;101994.72;;;19.93;55.93
20909;BME280;10614;53.198;6.570;2023-06-14T07:46:42;101997.19;;;19.96;56.02
20909;BME280;10614;53.198;6.570;2023-06-14T07:48:44;101995.28;;;19.98;56.05
20909;BME280;10614;53.198;6.570;2023-06-14T07:50:46;101984.69;;;19.96;54.97
20909;BME280;10614;53.198;6.570;2023-06-14T07:52:48;101991.56;;;20.00;55.02
20909;BME280;10614;53.198;6.570;2023-06-14T07:54:50;101990.59;;;20.01;54.84
20909;BME280;10614;53.198;6.570;2023-06-14T07:56:53;101998.25;;;20.08;54.59
20909;BME280;10614;53.198;6.570;2023-06-14T07:58:56;101964.34;;;19.94;53.58
20909;BME280;10614;53.198;6.570;2023-06-14T08:00:59;101977.44;;;19.98;53.85
20909;BME280;10614;53.198;6.570;2023-06-14T08:03:07;101989.16;;;20.10;53.78
20909;BME280;10614;53.198;6.570;2023-06-14T08:05:09;101995.19;;;20.14;53.74
20909;BME280;10614;53.198;6.570;2023-06-14T08:07:12;101996.81;;;20.16;53.10
20909;BME280;10614;53.198;6.570;2023-06-14T08:09:14;101994.72;;;20.21;52.99
20909;BME280;10614;53.198;6.570;2023-06-14T08:11:15;101991.84;;;20.24;53.46
20909;BME280;10614;53.198;6.570;2023-06-14T08:13:18;101970.09;;;20.16;53.48
20909;BME280;10614;53.198;6.570;2023-06-14T08:15:20;101977.63;;;20.24;52.85
20909;BME280;10614;53.198;6.570;2023-06-14T08:17:22;101993.00;;;20.35;52.89
20909;BME280;10614;53.198;6.570;2023-06-14T08:19:24;101987.53;;;20.36;52.92
20909;BME280;10614;53.198;6.570;2023-06-14T08:21:26;101999.84;;;20.39;52.53
20909;BME280;10614;53.198;6.570;2023-06-14T08:23:29;101985.16;;;20.32;51.66
20909;BME280;10614;53.198;6.570;2023-06-14T08:25:31;101975.63;;;20.28;51.91
20909;BME280;10614;53.198;6.570;2023-06-14T08:27:33;101990.13;;;20.38;52.44
20909;BME280;10614;53.198;6.570;2023-06-14T08:29:38;101994.69;;;20.50;52.49
20909;BME280;10614;53.198;6.570;2023-06-14T08:31:42;101995.19;;;20.57;52.51
20909;BME280;10614;53.198;6.570;2023-06-14T08:33:46;101978.84;;;20.61;52.45
20909;BME280;10614;53.198;6.570;2023-06-14T08:35:51;101991.16;;;20.64;51.50
20909;BME280;10614;53.198;6.570;2023-06-14T08:37:53;101969.28;;;20.57;50.25
20909;BME280;10614;53.198;6.570;2023-06-14T08:39:56;101971.50;;;20.65;50.39
20909;BME280;10614;53.198;6.570;2023-06-14T08:42:01;101981.69;;;20.73;49.98
20909;BME280;10614;53.198;6.570;2023-06-14T08:44:06;101965.81;;;20.70;50.39
20909;BME280;10614;53.198;6.570;2023-06-14T08:46:12;101992.25;;;20.89;50.06
20909;BME280;10614;53.198;6.570;2023-06-14T08:48:18;101984.31;;;20.87;49.68
20909;BME280;10614;53.198;6.570;2023-06-14T08:50:21;101983.16;;;20.91;49.26
20909;BME280;10614;53.198;6.570;2023-06-14T08:52:25;101988.41;;;20.93;49.55
20909;BME280;10614;53.198;6.570;2023-06-14T08:54:31;101986.63;;;20.93;50.11
20909;BME280;10614;53.198;6.570;2023-06-14T08:56:37;101991.31;;;21.02;49.97
20909;BME280;10614;53.198;6.570;2023-06-14T08:58:43;101982.44;;;21.02;49.79
20909;BME280;10614;53.198;6.570;2023-06-14T09:00:45;101983.00;;;21.07;48.73
20909;BME280;10614;53.198;6.570;2023-06-14T09:02:49;101984.44;;;21.13;48.57
20909;BME280;10614;53.198;6.570;2023-06-14T09:04:56;101992.03;;;21.19;48.61
20909;BME280;10614;53.198;6.570;2023-06-14T09:07:00;101988.19;;;21.23;48.79
20909;BME280;10614;53.198;6.570;2023-06-14T09:09:02;101982.00;;;21.22;49.16
20909;BME280;10614;53.198;6.570;2023-06-14T09:11:08;101991.41;;;21.28;49.07
20909;BME280;10614;53.198;6.570;2023-06-14T09:13:11;101990.47;;;21.29;49.54
20909;BME280;10614;53.198;6.570;2023-06-14T09:15:13;102000.75;;;21.35;49.63
20909;BME280;10614;53.198;6.570;2023-06-14T09:17:16;101989.94;;;21.37;49.75
20909;BME280;10614;53.198;6.570;2023-06-14T09:19:23;101988.03;;;21.39;50.52
20909;BME280;10614;53.198;6.570;2023-06-14T09:21:25;101983.53;;;21.39;50.32
20909;BME280;10614;53.198;6.570;2023-06-14T09:23:27;101986.69;;;21.46;50.46
20909;BME280;10614;53.198;6.570;2023-06-14T09:25:31;102002.44;;;21.50;50.77
20909;BME280;10614;53.198;6.570;2023-06-14T09:27:33;101995.06;;;21.54;50.57
20909;BME280;10614;53.198;6.570;2023-06-14T09:29:35;101990.44;;;21.56;49.71
20909;BME280;10614;53.198;6.570;2023-06-14T09:31:37;102002.03;;;21.57;49.67
20909;BME280;10614;53.198;6.570;2023-06-14T09:33:41;101987.97;;;21.53;49.64
20909;BME280;10614;53.198;6.570;2023-06-14T09:35:52;102007.84;;;21.63;49.34
20909;BME280;10614;53.198;6.570;2023-06-14T09:37:55;102007.72;;;21.65;48.70
20909;BME280;10614;53.198;6.570;2023-06-14T09:39:58;102011.06;;;21.68;47.65
20909;BME280;10614;53.198;6.570;2023-06-14T09:42:16;102005.56;;;21.70;47.65
20909;BME280;10614;53.198;6.570;2023-06-14T09:44:20;101993.91;;;21.71;47.13
20909;BME280;10614;53.198;6.570;2023-06-14T09:46:26;102004.19;;;21.77;47.19
20909;BME280;10614;53.198;6.570;2023-06-14T09:48:28;101989.19;;;21.75;47.08
20909;BME280;10614;53.198;6.570;2023-06-14T09:50:30;102001.09;;;21.83;46.76
20909;BME280;10614;53.198;6.570;2023-06-14T09:52:35;101990.16;;;21.86;47.09
20909;BME280;10614;53.198;6.570;2023-06-14T09:54:40;101976.00;;;21.84;47.19
20909;BME280;10614;53.198;6.570;2023-06-14T09:56:44;101983.81;;;22.00;47.37
20909;BME280;10614;53.198;6.570;2023-06-14T09:58:48;101997.34;;;22.11;46.91
20909;BME280;10614;53.198;6.570;2023-06-14T10:00:52;101975.25;;;22.08;46.57
20909;BME280;10614;53.198;6.570;2023-06-14T10:03:03;101966.91;;;22.12;46.45
20909;BME280;10614;53.198;6.570;2023-06-14T10:05:11;101991.56;;;22.30;46.42
20909;BME280;10614;53.198;6.570;2023-06-14T10:07:20;102001.09;;;22.34;47.07
20909;BME280;10614;53.198;6.570;2023-06-14T10:09:24;101992.97;;;22.36;46.66
20909;BME280;10614;53.198;6.570;2023-06-14T10:11:27;101979.22;;;22.28;45.43
20909;BME280;10614;53.198;6.570;2023-06-14T10:13:31;101990.91;;;22.40;46.04
20909;BME280;10614;53.198;6.570;2023-06-14T10:15:38;101982.41;;;22.46;45.39
20909;BME280;10614;53.198;6.570;2023-06-14T10:17:50;102004.81;;;22.58;45.64
20909;BME280;10614;53.198;6.570;2023-06-14T10:20:06;101973.22;;;22.61;45.15
20909;BME280;10614;53.198;6.570;2023-06-14T10:22:18;101953.09;;;22.55;45.49
20909;BME280;10614;53.198;6.570;2023-06-14T10:24:29;101995.28;;;22.77;44.80
20909;BME280;10614;53.198;6.570;2023-06-14T10:26:32;101980.19;;;22.76;44.62
20909;BME280;10614;53.198;6.570;2023-06-14T10:28:37;101983.44;;;22.93;44.79
20909;BME280;10614;53.198;6.570;2023-06-14T10:31:01;101983.00;;;22.99;44.91
20909;BME280;10614;53.198;6.570;2023-06-14T10:33:05;101982.53;;;23.05;44.72
20909;BME280;10614;53.198;6.570;2023-06-14T10:35:08;101978.66;;;23.09;44.59
20909;BME280;10614;53.198;6.570;2023-06-14T10:37:12;101979.34;;;23.24;44.25
20909;BME280;10614;53.198;6.570;2023-06-14T10:39:17;101964.06;;;23.25;43.69
20909;BME280;10614;53.198;6.570;2023-06-14T10:41:21;101975.84;;;23.35;43.66
20909;BME280;10614;53.198;6.570;2023-06-14T10:43:24;101969.97;;;23.41;44.06
20909;BME280;10614;53.198;6.570;2023-06-14T10:45:26;101963.00;;;23.38;43.36